sensor_id;sensor_type;location;lat;lon;timestamp;temperature;humidity
22666;DHT22;11499;49.486;11.104;2023-02-28T00:01:02;-2.10;91.10
22666;DHT22;11499;49.486;11.104;2023-02-28T00:03:27;-2.10;91.00
22666;DHT22;11499;49.486;11.104;2023-02-28T00:05:53;-2.10;91.00
22666;DHT22;11499;49.486;11.104;2023-02-28T00:08:18;-2.10;91.00
22666;DHT22;11499;49.486;11.104;2023-02-28T00:10:44;-2.10;91.00
22666;DHT22;11499;49.486;11.104;2023-02-28T00:13:09;-2.00;90.90
22666;DHT22;11499;49.486;11.104;2023-02-28T00:15:35;-2.10;90.90
22666;DHT22;11499;49.486;11.104;2023-02-28T00:21:04;-2.10;91.00
22666;DHT22;11499;49.486;11.104;2023-02-28T00:23:29;-2.10;91.20
22666;DHT22;11499;49.486;11.104;2023-02-28T00:25:55;-2.10;91.10
22666;DHT22;11499;49.486;11.104;2023-02-28T00:28:21;-2.10;91.00
22666;DHT22;11499;49.486;11.104;2023-02-28T00:30:47;-2.10;91.20
22666;DHT22;11499;49.486;11.104;2023-02-28T00:33:13;-2.00;91.20
22666;DHT22;11499;49.486;11.104;2023-02-28T00:35:38;-2.10;91.20
22666;DHT22;11499;49.486;11.104;2023-02-28T00:38:04;-2.10;91.30
22666;DHT22;11499;49.486;11.104;2023-02-28T00:40:29;-2.10;91.30
22666;DHT22;11499;49.486;11.104;2023-02-28T00:42:55;-2.10;91.30
22666;DHT22;11499;49.486;11.104;2023-02-28T00:48:01;-2.10;91.40
22666;DHT22;11499;49.486;11.104;2023-02-28T00:50:27;-2.00;91.40
22666;DHT22;11499;49.486;11.104;2023-02-28T00:52:52;-2.00;91.40
22666;DHT22;11499;49.486;11.104;2023-02-28T00:55:18;-2.00;91.40
22666;DHT22;11499;49.486;11.104;2023-02-28T00:57:43;-1.90;91.50
22666;DHT22;11499;49.486;11.104;2023-02-28T01:00:10;-2.00;91.40
22666;DHT22;11499;49.486;11.104;2023-02-28T01:02:36;-2.00;91.50
22666;DHT22;11499;49.486;11.104;2023-02-28T01:05:01;-2.00;91.40
22666;DHT22;11499;49.486;11.104;2023-02-28T01:07:27;-1.90;91.50
22666;DHT22;11499;49.486;11.104;2023-02-28T01:09:52;-2.00;91.50
22666;DHT22;11499;49.486;11.104;2023-02-28T01:14:59;-2.00;91.50
22666;DHT22;11499;49.486;11.104;2023-02-28T01:17:25;-1.90;91.50
22666;DHT22;11499;49.486;11.104;2023-02-28T01:19:53;-1.80;91.60
22666;DHT22;11499;49.486;11.104;2023-02-28T01:22:19;-2.00;91.70
22666;DHT22;11499;49.486;11.104;2023-02-28T01:24:45;-2.00;91.80
22666;DHT22;11499;49.486;11.104;2023-02-28T01:27:10;-2.00;91.80
22666;DHT22;11499;49.486;11.104;2023-02-28T01:29:36;-2.00;91.80
22666;DHT22;11499;49.486;11.104;2023-02-28T01:32:01;-2.00;91.90
22666;DHT22;11499;49.486;11.104;2023-02-28T01:34:26;-2.10;92.00
22666;DHT22;11499;49.486;11.104;2023-02-28T01:36:52;-2.10;92.10
22666;DHT22;11499;49.486;11.104;2023-02-28T01:41:56;-2.00;92.20
22666;DHT22;11499;49.486;11.104;2023-02-28T01:44:54;-2.00;92.30
22666;DHT22;11499;49.486;11.104;2023-02-28T01:47:20;-2.00;92.30
22666;DHT22;11499;49.486;11.104;2023-02-28T01:49:47;-2.00;92.20
22666;DHT22;11499;49.486;11.104;2023-02-28T01:52:14;-2.00;92.30
22666;DHT22;11499;49.486;11.104;2023-02-28T01:54:45;-2.10;92.40
22666;DHT22;11499;49.486;11.104;2023-02-28T01:57:17;-2.10;92.40
22666;DHT22;11499;49.486;11.104;2023-02-28T02:00:00;-2.10;92.50
22666;DHT22;11499;49.486;11.104;2023-02-28T02:02:29;-2.10;92.70
22666;DHT22;11499;49.486;11.104;2023-02-28T02:08:29;-2.10;92.70
22666;DHT22;11499;49.486;11.104;2023-02-28T02:10:55;-2.20;92.90
22666;DHT22;11499;49.486;11.104;2023-02-28T02:16:04;-2.20;93.00
22666;DHT22;11499;49.486;11.104;2023-02-28T02:18:49;-2.20;93.20
22666;DHT22;11499;49.486;11.104;2023-02-28T02:32:57;-2.20;93.20
22666;DHT22;11499;49.486;11.104;2023-02-28T02:35:42;-2.00;93.40
22666;DHT22;11499;49.486;11.104;2023-02-28T02:39:19;-2.20;93.40
22666;DHT22;11499;49.486;11.104;2023-02-28T02:41:51;-2.30;93.40
22666;DHT22;11499;49.486;11.104;2023-02-28T02:44:37;-2.20;93.40
22666;DHT22;11499;49.486;11.104;2023-02-28T02:47:10;-2.20;93.50
22666;DHT22;11499;49.486;11.104;2023-02-28T02:49:38;-2.20;93.60
22666;DHT22;11499;49.486;11.104;2023-02-28T02:52:08;-2.30;93.60
22666;DHT22;11499;49.486;11.104;2023-02-28T02:54:40;-2.00;93.80
22666;DHT22;11499;49.486;11.104;2023-02-28T02:57:12;-2.20;93.70
22666;DHT22;11499;49.486;11.104;2023-02-28T02:59:40;-2.20;93.70
22666;DHT22;11499;49.486;11.104;2023-02-28T03:02:08;-2.20;93.70
22666;DHT22;11499;49.486;11.104;2023-02-28T03:06:33;-2.20;93.70
22666;DHT22;11499;49.486;11.104;2023-02-28T03:09:00;-2.20;93.70
22666;DHT22;11499;49.486;11.104;2023-02-28T03:11:26;-2.30;93.70
22666;DHT22;11499;49.486;11.104;2023-02-28T03:19:48;-2.30;93.90
22666;DHT22;11499;49.486;11.104;2023-02-28T03:23:19;-2.30;93.90
22666;DHT22;11499;49.486;11.104;2023-02-28T03:25:38;-2.30;93.80
22666;DHT22;11499;49.486;11.104;2023-02-28T03:31:07;-2.30;94.00
22666;DHT22;11499;49.486;11.104;2023-02-28T03:36:16;-2.30;94.00
22666;DHT22;11499;49.486;11.104;2023-02-28T03:38:52;-2.20;94.00
22666;DHT22;11499;49.486;11.104;2023-02-28T03:41:25;-2.30;94.00
22666;DHT22;11499;49.486;11.104;2023-02-28T03:43:58;-2.30;94.00
22666;DHT22;11499;49.486;11.104;2023-02-28T03:46:28;-2.30;94.10
22666;DHT22;11499;49.486;11.104;2023-02-28T03:51:46;-2.30;94.10
22666;DHT22;11499;49.486;11.104;2023-02-28T03:54:18;-2.30;94.10
22666;DHT22;11499;49.486;11.104;2023-02-28T04:02:55;-2.30;94.20
22666;DHT22;11499;49.486;11.104;2023-02-28T04:05:21;-2.30;94.20
22666;DHT22;11499;49.486;11.104;2023-02-28T04:07:47;-2.30;94.20
22666;DHT22;11499;49.486;11.104;2023-02-28T04:10:15;-2.30;94.20
22666;DHT22;11499;49.486;11.104;2023-02-28T04:12:40;-2.30;94.30
22666;DHT22;11499;49.486;11.104;2023-02-28T04:15:06;-2.30;94.20
22666;DHT22;11499;49.486;11.104;2023-02-28T04:17:32;-2.30;94.20
22666;DHT22;11499;49.486;11.104;2023-02-28T04:19:58;-2.30;94.20
22666;DHT22;11499;49.486;11.104;2023-02-28T04:22:23;-2.30;94.30
22666;DHT22;11499;49.486;11.104;2023-02-28T04:24:52;-2.30;94.20
22666;DHT22;11499;49.486;11.104;2023-02-28T04:30:05;-2.20;94.20
22666;DHT22;11499;49.486;11.104;2023-02-28T04:32:31;-2.20;94.20
22666;DHT22;11499;49.486;11.104;2023-02-28T04:34:57;-2.30;94.30
22666;DHT22;11499;49.486;11.104;2023-02-28T04:37:22;-2.30;94.30
22666;DHT22;11499;49.486;11.104;2023-02-28T04:39:53;-2.30;94.30
22666;DHT22;11499;49.486;11.104;2023-02-28T04:42:18;-2.20;94.40
22666;DHT22;11499;49.486;11.104;2023-02-28T04:44:44;-2.30;94.30
22666;DHT22;11499;49.486;11.104;2023-02-28T04:47:09;-2.20;94.40
22666;DHT22;11499;49.486;11.104;2023-02-28T04:49:34;-2.20;94.40
22666;DHT22;11499;49.486;11.104;2023-02-28T04:52:00;-2.20;94.40
22666;DHT22;11499;49.486;11.104;2023-02-28T04:57:56;-2.20;94.40
22666;DHT22;11499;49.486;11.104;2023-02-28T05:00:21;-2.20;94.50
22666;DHT22;11499;49.486;11.104;2023-02-28T05:02:47;-2.20;94.50
22666;DHT22;11499;49.486;11.104;2023-02-28T05:05:12;-2.00;94.60
22666;DHT22;11499;49.486;11.104;2023-02-28T05:07:43;-2.20;94.50
22666;DHT22;11499;49.486;11.104;2023-02-28T05:10:11;-2.30;94.60
22666;DHT22;11499;49.486;11.104;2023-02-28T05:12:37;-2.20;94.60
22666;DHT22;11499;49.486;11.104;2023-02-28T05:15:03;-2.20;94.60
22666;DHT22;11499;49.486;11.104;2023-02-28T05:17:33;-2.20;94.70
22666;DHT22;11499;49.486;11.104;2023-02-28T05:19:58;-2.30;94.90
22666;DHT22;11499;49.486;11.104;2023-02-28T05:25:17;-2.20;94.80
22666;DHT22;11499;49.486;11.104;2023-02-28T05:27:43;-2.30;94.70
22666;DHT22;11499;49.486;11.104;2023-02-28T05:30:09;-2.20;94.80
22666;DHT22;11499;49.486;11.104;2023-02-28T05:32:36;-2.30;94.80
22666;DHT22;11499;49.486;11.104;2023-02-28T05:35:03;-2.30;94.90
22666;DHT22;11499;49.486;11.104;2023-02-28T05:37:28;-2.30;94.90
22666;DHT22;11499;49.486;11.104;2023-02-28T05:39:54;-2.30;94.90
22666;DHT22;11499;49.486;11.104;2023-02-28T05:42:19;-2.30;94.90
22666;DHT22;11499;49.486;11.104;2023-02-28T05:44:45;-2.30;94.90
22666;DHT22;11499;49.486;11.104;2023-02-28T05:47:11;-2.30;95.00
22666;DHT22;11499;49.486;11.104;2023-02-28T05:52:28;-2.30;95.00
22666;DHT22;11499;49.486;11.104;2023-02-28T05:54:55;-2.40;95.10
22666;DHT22;11499;49.486;11.104;2023-02-28T05:57:21;-2.40;95.10
22666;DHT22;11499;49.486;11.104;2023-02-28T05:59:47;-2.40;95.10
22666;DHT22;11499;49.486;11.104;2023-02-28T06:02:14;-2.40;95.10
22666;DHT22;11499;49.486;11.104;2023-02-28T06:04:40;-2.40;95.10
22666;DHT22;11499;49.486;11.104;2023-02-28T06:07:07;-2.40;95.10
22666;DHT22;11499;49.486;11.104;2023-02-28T06:09:32;-2.40;95.10
22666;DHT22;11499;49.486;11.104;2023-02-28T06:11:59;-2.40;95.10
22666;DHT22;11499;49.486;11.104;2023-02-28T06:14:25;-2.40;95.10
22666;DHT22;11499;49.486;11.104;2023-02-28T06:19:38;-2.40;95.10
22666;DHT22;11499;49.486;11.104;2023-02-28T06:22:05;-2.40;95.00
22666;DHT22;11499;49.486;11.104;2023-02-28T06:24:30;-2.40;95.00
22666;DHT22;11499;49.486;11.104;2023-02-28T06:26:56;-2.30;95.00
22666;DHT22;11499;49.486;11.104;2023-02-28T06:29:24;-2.30;94.90
22666;DHT22;11499;49.486;11.104;2023-02-28T06:31:49;-2.30;94.80
22666;DHT22;11499;49.486;11.104;2023-02-28T06:34:15;-2.20;94.80
22666;DHT22;11499;49.486;11.104;2023-02-28T06:36:42;-2.20;94.80
22666;DHT22;11499;49.486;11.104;2023-02-28T06:39:08;-2.00;94.80
22666;DHT22;11499;49.486;11.104;2023-02-28T06:41:34;-2.00;94.40
22666;DHT22;11499;49.486;11.104;2023-02-28T06:46:51;-2.00;94.30
22666;DHT22;11499;49.486;11.104;2023-02-28T06:49:17;-1.90;94.20
22666;DHT22;11499;49.486;11.104;2023-02-28T06:51:44;-1.90;94.10
22666;DHT22;11499;49.486;11.104;2023-02-28T06:54:13;-1.80;93.90
22666;DHT22;11499;49.486;11.104;2023-02-28T06:56:38;-1.70;93.90
22666;DHT22;11499;49.486;11.104;2023-02-28T06:59:04;-1.60;93.60
22666;DHT22;11499;49.486;11.104;2023-02-28T07:01:30;-1.60;93.60
22666;DHT22;11499;49.486;11.104;2023-02-28T07:03:57;-1.60;93.40
22666;DHT22;11499;49.486;11.104;2023-02-28T07:06:22;-1.50;93.30
22666;DHT22;11499;49.486;11.104;2023-02-28T07:08:49;-1.40;93.30
22666;DHT22;11499;49.486;11.104;2023-02-28T07:13:57;-1.30;93.20
22666;DHT22;11499;49.486;11.104;2023-02-28T07:16:24;-1.20;93.00
22666;DHT22;11499;49.486;11.104;2023-02-28T07:18:52;-1.10;92.80
22666;DHT22;11499;49.486;11.104;2023-02-28T07:21:18;-1.10;92.70
22666;DHT22;11499;49.486;11.104;2023-02-28T07:23:43;-1.00;92.60
22666;DHT22;11499;49.486;11.104;2023-02-28T07:26:12;-1.00;92.40
22666;DHT22;11499;49.486;11.104;2023-02-28T07:28:43;-0.90;92.30
22666;DHT22;11499;49.486;11.104;2023-02-28T07:31:09;-0.70;92.40
22666;DHT22;11499;49.486;11.104;2023-02-28T07:33:35;-0.50;92.10
22666;DHT22;11499;49.486;11.104;2023-02-28T07:39:44;-0.60;91.90
22666;DHT22;11499;49.486;11.104;2023-02-28T07:42:09;-0.40;91.40
22666;DHT22;11499;49.486;11.104;2023-02-28T07:44:37;-0.30;91.50
22666;DHT22;11499;49.486;11.104;2023-02-28T07:47:09;-0.20;91.50
22666;DHT22;11499;49.486;11.104;2023-02-28T07:49:38;-0.20;91.10
22666;DHT22;11499;49.486;11.104;2023-02-28T07:52:05;-0.30;91.20
22666;DHT22;11499;49.486;11.104;2023-02-28T07:54:31;-0.20;91.10
22666;DHT22;11499;49.486;11.104;2023-02-28T07:56:57;-0.10;91.00
22666;DHT22;11499;49.486;11.104;2023-02-28T07:59:22;0.20;90.90
22666;DHT22;11499;49.486;11.104;2023-02-28T08:01:48;0.10;90.30
22666;DHT22;11499;49.486;11.104;2023-02-28T08:05:19;0.50;90.60
22666;DHT22;11499;49.486;11.104;2023-02-28T08:07:45;0.20;90.00
22666;DHT22;11499;49.486;11.104;2023-02-28T08:10:10;0.20;89.50
22666;DHT22;11499;49.486;11.104;2023-02-28T08:12:36;0.30;89.80
22666;DHT22;11499;49.486;11.104;2023-02-28T08:15:02;0.40;89.40
22666;DHT22;11499;49.486;11.104;2023-02-28T08:17:27;0.40;88.90
22666;DHT22;11499;49.486;11.104;2023-02-28T08:19:53;0.30;88.50
22666;DHT22;11499;49.486;11.104;2023-02-28T08:22:18;0.40;89.40
22666;DHT22;11499;49.486;11.104;2023-02-28T08:24:44;0.70;87.50
22666;DHT22;11499;49.486;11.104;2023-02-28T08:27:10;0.70;86.70
22666;DHT22;11499;49.486;11.104;2023-02-28T08:32:20;0.70;86.00
22666;DHT22;11499;49.486;11.104;2023-02-28T08:34:46;0.60;85.70
22666;DHT22;11499;49.486;11.104;2023-02-28T08:37:11;0.90;85.00
22666;DHT22;11499;49.486;11.104;2023-02-28T08:39:37;0.60;85.00
22666;DHT22;11499;49.486;11.104;2023-02-28T08:42:03;0.60;85.40
22666;DHT22;11499;49.486;11.104;2023-02-28T08:44:28;0.80;84.90
22666;DHT22;11499;49.486;11.104;2023-02-28T08:46:54;0.90;84.80
22666;DHT22;11499;49.486;11.104;2023-02-28T08:49:19;0.90;84.40
22666;DHT22;11499;49.486;11.104;2023-02-28T08:51:45;1.10;84.20
22666;DHT22;11499;49.486;11.104;2023-02-28T08:54:10;1.10;82.50
22666;DHT22;11499;49.486;11.104;2023-02-28T08:59:15;1.30;83.00
22666;DHT22;11499;49.486;11.104;2023-02-28T09:01:41;2.00;81.50
22666;DHT22;11499;49.486;11.104;2023-02-28T09:04:07;2.10;78.70
22666;DHT22;11499;49.486;11.104;2023-02-28T09:06:34;1.90;79.10
22666;DHT22;11499;49.486;11.104;2023-02-28T09:08:59;1.70;78.50
22666;DHT22;11499;49.486;11.104;2023-02-28T09:11:27;1.60;78.90
22666;DHT22;11499;49.486;11.104;2023-02-28T09:13:52;1.40;78.90
22666;DHT22;11499;49.486;11.104;2023-02-28T09:16:18;1.70;79.00
22666;DHT22;11499;49.486;11.104;2023-02-28T09:18:44;1.90;78.20
22666;DHT22;11499;49.486;11.104;2023-02-28T09:21:16;1.70;78.50
22666;DHT22;11499;49.486;11.104;2023-02-28T09:26:25;1.70;78.90
22666;DHT22;11499;49.486;11.104;2023-02-28T09:28:52;2.40;78.40
22666;DHT22;11499;49.486;11.104;2023-02-28T09:31:24;2.00;78.10
22666;DHT22;11499;49.486;11.104;2023-02-28T09:33:53;2.50;77.10
22666;DHT22;11499;49.486;11.104;2023-02-28T09:36:19;2.90;75.20
22666;DHT22;11499;49.486;11.104;2023-02-28T09:38:45;3.20;74.40
22666;DHT22;11499;49.486;11.104;2023-02-28T09:41:18;3.60;72.50
22666;DHT22;11499;49.486;11.104;2023-02-28T09:43:47;3.70;71.40
22666;DHT22;11499;49.486;11.104;2023-02-28T09:54:18;2.70;70.30
22666;DHT22;11499;49.486;11.104;2023-02-28T09:57:06;2.50;71.80
22666;DHT22;11499;49.486;11.104;2023-02-28T09:59:48;2.70;71.30
22666;DHT22;11499;49.486;11.104;2023-02-28T10:05:02;2.30;71.80
22666;DHT22;11499;49.486;11.104;2023-02-28T10:08:00;2.30;71.50
22666;DHT22;11499;49.486;11.104;2023-02-28T10:13:06;2.70;70.80
22666;DHT22;11499;49.486;11.104;2023-02-28T10:18:30;2.60;70.80
22666;DHT22;11499;49.486;11.104;2023-02-28T10:20:56;2.40;70.90
22666;DHT22;11499;49.486;11.104;2023-02-28T10:23:26;2.40;70.10
22666;DHT22;11499;49.486;11.104;2023-02-28T10:26:00;2.30;70.20
22666;DHT22;11499;49.486;11.104;2023-02-28T10:28:29;2.40;69.90
22666;DHT22;11499;49.486;11.104;2023-02-28T10:30:56;2.10;70.00
22666;DHT22;11499;49.486;11.104;2023-02-28T10:33:33;1.90;70.00
22666;DHT22;11499;49.486;11.104;2023-02-28T10:36:02;2.40;70.00
22666;DHT22;11499;49.486;11.104;2023-02-28T10:38:36;2.70;70.40
22666;DHT22;11499;49.486;11.104;2023-02-28T10:43:39;3.00;68.60
22666;DHT22;11499;49.486;11.104;2023-02-28T10:48:43;3.40;68.80
22666;DHT22;11499;49.486;11.104;2023-02-28T10:51:12;3.40;68.50
22666;DHT22;11499;49.486;11.104;2023-02-28T10:53:58;3.50;66.90
22666;DHT22;11499;49.486;11.104;2023-02-28T10:56:24;3.90;67.30
22666;DHT22;11499;49.486;11.104;2023-02-28T10:58:57;3.70;67.10
22666;DHT22;11499;49.486;11.104;2023-02-28T11:01:42;4.00;66.40
22666;DHT22;11499;49.486;11.104;2023-02-28T11:06:59;3.90;65.30
22666;DHT22;11499;49.486;11.104;2023-02-28T11:11:06;3.60;66.50
22666;DHT22;11499;49.486;11.104;2023-02-28T11:13:34;3.60;65.00
22666;DHT22;11499;49.486;11.104;2023-02-28T11:16:03;3.90;65.50
22666;DHT22;11499;49.486;11.104;2023-02-28T11:18:41;3.80;64.90
22666;DHT22;11499;49.486;11.104;2023-02-28T11:21:08;3.80;64.60
22666;DHT22;11499;49.486;11.104;2023-02-28T11:23:36;3.70;65.50
22666;DHT22;11499;49.486;11.104;2023-02-28T11:26:05;3.70;65.00
22666;DHT22;11499;49.486;11.104;2023-02-28T11:28:40;4.00;64.60
22666;DHT22;11499;49.486;11.104;2023-02-28T11:36:52;3.80;65.10
22666;DHT22;11499;49.486;11.104;2023-02-28T11:39:19;4.00;64.50
22666;DHT22;11499;49.486;11.104;2023-02-28T11:48:51;4.00;64.60
22666;DHT22;11499;49.486;11.104;2023-02-28T11:51:34;4.20;64.90
22666;DHT22;11499;49.486;11.104;2023-02-28T11:54:04;4.00;64.10
22666;DHT22;11499;49.486;11.104;2023-02-28T11:56:44;4.40;64.70
22666;DHT22;11499;49.486;11.104;2023-02-28T12:04:10;4.10;64.20
22666;DHT22;11499;49.486;11.104;2023-02-28T12:07:03;3.90;63.80
22666;DHT22;11499;49.486;11.104;2023-02-28T12:09:53;4.30;63.40
22666;DHT22;11499;49.486;11.104;2023-02-28T12:12:42;4.30;63.10
22666;DHT22;11499;49.486;11.104;2023-02-28T12:17:49;4.80;61.60
22666;DHT22;11499;49.486;11.104;2023-02-28T12:20:33;4.80;62.00
22666;DHT22;11499;49.486;11.104;2023-02-28T12:29:24;4.40;62.00
22666;DHT22;11499;49.486;11.104;2023-02-28T12:31:59;4.30;62.40
22666;DHT22;11499;49.486;11.104;2023-02-28T12:37:47;4.50;62.80
22666;DHT22;11499;49.486;11.104;2023-02-28T12:40:19;5.00;61.60
22666;DHT22;11499;49.486;11.104;2023-02-28T12:43:06;4.80;61.40
22666;DHT22;11499;49.486;11.104;2023-02-28T12:45:52;4.90;61.40
22666;DHT22;11499;49.486;11.104;2023-02-28T12:48:33;4.90;61.40
22666;DHT22;11499;49.486;11.104;2023-02-28T12:51:03;5.10;61.70
22666;DHT22;11499;49.486;11.104;2023-02-28T12:58:58;5.50;60.70
22666;DHT22;11499;49.486;11.104;2023-02-28T13:09:54;5.80;60.60
22666;DHT22;11499;49.486;11.104;2023-02-28T13:12:21;6.10;60.90
22666;DHT22;11499;49.486;11.104;2023-02-28T13:14:48;5.50;60.20
22666;DHT22;11499;49.486;11.104;2023-02-28T13:17:23;5.30;61.10
22666;DHT22;11499;49.486;11.104;2023-02-28T13:23:02;5.20;61.00
22666;DHT22;11499;49.486;11.104;2023-02-28T13:28:00;5.20;61.40
22666;DHT22;11499;49.486;11.104;2023-02-28T13:36:26;6.00;60.40
22666;DHT22;11499;49.486;11.104;2023-02-28T13:38:56;5.90;60.00
22666;DHT22;11499;49.486;11.104;2023-02-28T13:49:29;5.40;60.50
22666;DHT22;11499;49.486;11.104;2023-02-28T13:57:24;5.50;60.80
22666;DHT22;11499;49.486;11.104;2023-02-28T14:00:15;5.80;60.60
22666;DHT22;11499;49.486;11.104;2023-02-28T14:05:19;6.00;60.90
22666;DHT22;11499;49.486;11.104;2023-02-28T14:08:14;5.90;60.40
22666;DHT22;11499;49.486;11.104;2023-02-28T14:10:45;5.90;60.10
22666;DHT22;11499;49.486;11.104;2023-02-28T14:17:15;5.70;61.10
22666;DHT22;11499;49.486;11.104;2023-02-28T14:19:44;5.80;60.50
22666;DHT22;11499;49.486;11.104;2023-02-28T14:22:43;5.80;61.20
22666;DHT22;11499;49.486;11.104;2023-02-28T14:31:07;5.80;60.30
22666;DHT22;11499;49.486;11.104;2023-02-28T14:36:35;5.70;61.30
22666;DHT22;11499;49.486;11.104;2023-02-28T14:43:56;5.80;61.30
22666;DHT22;11499;49.486;11.104;2023-02-28T14:46:30;5.60;60.60
22666;DHT22;11499;49.486;11.104;2023-02-28T14:48:59;5.20;61.30
22666;DHT22;11499;49.486;11.104;2023-02-28T14:51:25;5.20;61.80
22666;DHT22;11499;49.486;11.104;2023-02-28T14:53:56;5.30;60.80
22666;DHT22;11499;49.486;11.104;2023-02-28T14:56:42;5.10;60.80
22666;DHT22;11499;49.486;11.104;2023-02-28T14:59:24;5.20;60.90
22666;DHT22;11499;49.486;11.104;2023-02-28T15:01:50;5.10;60.80
22666;DHT22;11499;49.486;11.104;2023-02-28T15:04:26;4.80;61.60
22666;DHT22;11499;49.486;11.104;2023-02-28T15:08:39;4.90;61.90
22666;DHT22;11499;49.486;11.104;2023-02-28T15:11:17;4.90;61.30
22666;DHT22;11499;49.486;11.104;2023-02-28T15:13:51;4.80;62.30
22666;DHT22;11499;49.486;11.104;2023-02-28T15:16:22;5.10;62.70
22666;DHT22;11499;49.486;11.104;2023-02-28T15:18:50;4.80;62.50
22666;DHT22;11499;49.486;11.104;2023-02-28T15:21:26;4.80;62.40
22666;DHT22;11499;49.486;11.104;2023-02-28T15:23:57;4.80;62.70
22666;DHT22;11499;49.486;11.104;2023-02-28T15:26:28;4.80;62.60
22666;DHT22;11499;49.486;11.104;2023-02-28T15:29:04;4.90;62.60
22666;DHT22;11499;49.486;11.104;2023-02-28T15:34:34;4.80;62.40
22666;DHT22;11499;49.486;11.104;2023-02-28T15:37:00;4.90;63.50
22666;DHT22;11499;49.486;11.104;2023-02-28T15:39:28;5.10;62.60
22666;DHT22;11499;49.486;11.104;2023-02-28T15:42:18;4.70;62.50
22666;DHT22;11499;49.486;11.104;2023-02-28T15:44:44;4.60;62.90
22666;DHT22;11499;49.486;11.104;2023-02-28T15:47:19;4.50;63.40
22666;DHT22;11499;49.486;11.104;2023-02-28T15:49:51;4.50;63.40
22666;DHT22;11499;49.486;11.104;2023-02-28T15:52:24;4.50;63.90
22666;DHT22;11499;49.486;11.104;2023-02-28T15:54:52;4.70;64.10
22666;DHT22;11499;49.486;11.104;2023-02-28T15:59:56;4.70;63.60
22666;DHT22;11499;49.486;11.104;2023-02-28T16:02:34;4.50;63.30
22666;DHT22;11499;49.486;11.104;2023-02-28T16:07:28;4.20;64.30
22666;DHT22;11499;49.486;11.104;2023-02-28T16:09:54;4.20;64.50
22666;DHT22;11499;49.486;11.104;2023-02-28T16:12:21;4.10;64.50
22666;DHT22;11499;49.486;11.104;2023-02-28T16:14:52;4.10;65.00
22666;DHT22;11499;49.486;11.104;2023-02-28T16:17:21;4.00;65.20
22666;DHT22;11499;49.486;11.104;2023-02-28T16:19:48;4.00;65.40
22666;DHT22;11499;49.486;11.104;2023-02-28T16:22:14;4.00;65.50
22666;DHT22;11499;49.486;11.104;2023-02-28T16:27:29;4.00;65.70
22666;DHT22;11499;49.486;11.104;2023-02-28T16:29:55;4.00;66.00
22666;DHT22;11499;49.486;11.104;2023-02-28T16:32:21;3.90;66.10
22666;DHT22;11499;49.486;11.104;2023-02-28T16:34:47;3.80;65.90
22666;DHT22;11499;49.486;11.104;2023-02-28T16:37:14;3.80;66.40
22666;DHT22;11499;49.486;11.104;2023-02-28T16:39:41;3.60;66.40
22666;DHT22;11499;49.486;11.104;2023-02-28T16:42:31;3.60;66.50
22666;DHT22;11499;49.486;11.104;2023-02-28T16:44:56;3.50;66.60
22666;DHT22;11499;49.486;11.104;2023-02-28T16:47:23;3.50;66.70
22666;DHT22;11499;49.486;11.104;2023-02-28T16:49:49;3.40;67.00
22666;DHT22;11499;49.486;11.104;2023-02-28T16:52:14;3.30;67.30
22666;DHT22;11499;49.486;11.104;2023-02-28T16:54:40;3.30;67.30
22666;DHT22;11499;49.486;11.104;2023-02-28T16:58:48;3.30;67.50
22666;DHT22;11499;49.486;11.104;2023-02-28T17:01:14;3.10;67.90
22666;DHT22;11499;49.486;11.104;2023-02-28T17:03:40;3.10;68.00
22666;DHT22;11499;49.486;11.104;2023-02-28T17:06:12;3.00;68.30
22666;DHT22;11499;49.486;11.104;2023-02-28T17:08:41;3.00;68.40
22666;DHT22;11499;49.486;11.104;2023-02-28T17:11:06;2.90;68.20
22666;DHT22;11499;49.486;11.104;2023-02-28T17:13:32;2.80;68.20
22666;DHT22;11499;49.486;11.104;2023-02-28T17:15:59;2.80;68.60
22666;DHT22;11499;49.486;11.104;2023-02-28T17:18:25;2.80;68.60
22666;DHT22;11499;49.486;11.104;2023-02-28T17:20:52;2.70;68.70
22666;DHT22;11499;49.486;11.104;2023-02-28T17:25:31;2.70;69.00
22666;DHT22;11499;49.486;11.104;2023-02-28T17:27:57;2.60;69.30
22666;DHT22;11499;49.486;11.104;2023-02-28T17:30:25;2.60;69.30
22666;DHT22;11499;49.486;11.104;2023-02-28T17:32:53;2.50;69.30
22666;DHT22;11499;49.486;11.104;2023-02-28T17:35:18;2.50;69.70
22666;DHT22;11499;49.486;11.104;2023-02-28T17:37:44;2.40;70.00
22666;DHT22;11499;49.486;11.104;2023-02-28T17:40:14;2.30;70.10
22666;DHT22;11499;49.486;11.104;2023-02-28T17:42:40;2.30;70.10
22666;DHT22;11499;49.486;11.104;2023-02-28T17:45:06;2.30;70.50
22666;DHT22;11499;49.486;11.104;2023-02-28T17:47:32;2.20;70.60
22666;DHT22;11499;49.486;11.104;2023-02-28T17:52:28;2.10;70.60
22666;DHT22;11499;49.486;11.104;2023-02-28T17:54:54;1.90;70.80
22666;DHT22;11499;49.486;11.104;2023-02-28T17:57:20;1.90;70.90
22666;DHT22;11499;49.486;11.104;2023-02-28T17:59:45;1.80;71.20
22666;DHT22;11499;49.486;11.104;2023-02-28T18:02:12;1.70;71.30
22666;DHT22;11499;49.486;11.104;2023-02-28T18:04:38;1.70;71.30
22666;DHT22;11499;49.486;11.104;2023-02-28T18:07:05;1.60;71.60
22666;DHT22;11499;49.486;11.104;2023-02-28T18:09:31;1.50;71.90
22666;DHT22;11499;49.486;11.104;2023-02-28T18:11:57;1.40;72.20
22666;DHT22;11499;49.486;11.104;2023-02-28T18:14:24;1.30;72.30
22666;DHT22;11499;49.486;11.104;2023-02-28T18:16:51;1.20;72.50
22666;DHT22;11499;49.486;11.104;2023-02-28T18:22:50;1.00;73.00
22666;DHT22;11499;49.486;11.104;2023-02-28T18:25:16;1.00;73.30
22666;DHT22;11499;49.486;11.104;2023-02-28T18:27:42;1.00;73.50
22666;DHT22;11499;49.486;11.104;2023-02-28T18:30:31;1.00;73.40
22666;DHT22;11499;49.486;11.104;2023-02-28T18:32:58;1.00;73.60
22666;DHT22;11499;49.486;11.104;2023-02-28T18:35:24;0.90;74.10
22666;DHT22;11499;49.486;11.104;2023-02-28T18:38:14;0.90;74.00
22666;DHT22;11499;49.486;11.104;2023-02-28T18:40:41;0.80;74.00
22666;DHT22;11499;49.486;11.104;2023-02-28T18:43:08;0.90;74.10
22666;DHT22;11499;49.486;11.104;2023-02-28T18:45:37;0.90;74.00
22666;DHT22;11499;49.486;11.104;2023-02-28T18:50:51;0.90;74.20
22666;DHT22;11499;49.486;11.104;2023-02-28T18:53:17;0.80;74.50
22666;DHT22;11499;49.486;11.104;2023-02-28T18:55:43;0.90;74.80
22666;DHT22;11499;49.486;11.104;2023-02-28T18:58:09;0.70;74.70
22666;DHT22;11499;49.486;11.104;2023-02-28T19:00:36;0.70;74.80
22666;DHT22;11499;49.486;11.104;2023-02-28T19:03:02;0.70;74.90
22666;DHT22;11499;49.486;11.104;2023-02-28T19:05:28;0.70;74.90
22666;DHT22;11499;49.486;11.104;2023-02-28T19:07:57;0.70;75.00
22666;DHT22;11499;49.486;11.104;2023-02-28T19:10:23;0.70;75.10
22666;DHT22;11499;49.486;11.104;2023-02-28T19:12:48;0.60;75.20
22666;DHT22;11499;49.486;11.104;2023-02-28T19:17:55;0.60;75.20
22666;DHT22;11499;49.486;11.104;2023-02-28T19:20:21;0.60;75.40
22666;DHT22;11499;49.486;11.104;2023-02-28T19:22:46;0.60;75.80
22666;DHT22;11499;49.486;11.104;2023-02-28T19:25:12;0.60;75.70